sensor_id;sensor_type;location;lat;lon;timestamp;temperature;humidity
1091;DHT22;534;48.704;9.122;2023-02-03T04:02:23;6.40;88.00
1091;DHT22;534;48.704;9.122;2023-02-03T04:04:49;6.40;87.50
1091;DHT22;534;48.704;9.122;2023-02-03T04:07:17;6.30;87.80
1091;DHT22;534;48.704;9.122;2023-02-03T04:09:44;6.30;88.00
1091;DHT22;534;48.704;9.122;2023-02-03T04:12:17;6.20;88.30
1091;DHT22;534;48.704;9.122;2023-02-03T04:14:47;6.10;88.90
1091;DHT22;534;48.704;9.122;2023-02-03T04:17:13;6.10;88.70
1091;DHT22;534;48.704;9.122;2023-02-03T04:19:41;6.20;88.70
1091;DHT22;534;48.704;9.122;2023-02-03T04:22:08;6.10;88.80
1091;DHT22;534;48.704;9.122;2023-02-03T04:24:34;6.10;89.30
1091;DHT22;534;48.704;9.122;2023-02-03T04:27:01;6.20;89.30
1091;DHT22;534;48.704;9.122;2023-02-03T04:29:28;6.20;89.10
1091;DHT22;534;48.704;9.122;2023-02-03T04:31:54;6.10;89.40
1091;DHT22;534;48.704;9.122;2023-02-03T04:34:21;6.10;89.60
1091;DHT22;534;48.704;9.122;2023-02-03T04:36:49;6.30;89.60
1091;DHT22;534;48.704;9.122;2023-02-03T04:39:16;6.30;89.40
1091;DHT22;534;48.704;9.122;2023-02-03T04:41:42;6.30;89.50
1091;DHT22;534;48.704;9.122;2023-02-03T04:44:09;6.10;89.80
1091;DHT22;534;48.704;9.122;2023-02-03T04:46:36;6.00;90.10
1091;DHT22;534;48.704;9.122;2023-02-03T04:49:02;5.90;90.70
1091;DHT22;534;48.704;9.122;2023-02-03T04:51:29;5.80;91.60
1091;DHT22;534;48.704;9.122;2023-02-03T04:53:57;6.00;91.50
1091;DHT22;534;48.704;9.122;2023-02-03T04:56:23;6.10;91.10
1091;DHT22;534;48.704;9.122;2023-02-03T04:58:50;6.10;90.60
1091;DHT22;534;48.704;9.122;2023-02-03T05:01:17;6.30;90.80
1091;DHT22;534;48.704;9.122;2023-02-03T05:03:43;6.40;90.30
1091;DHT22;534;48.704;9.122;2023-02-03T05:06:10;6.40;89.60
1091;DHT22;534;48.704;9.122;2023-02-03T05:08:37;6.40;89.90
1091;DHT22;534;48.704;9.122;2023-02-03T05:11:05;6.40;89.80
1091;DHT22;534;48.704;9.122;2023-02-03T05:13:31;6.20;90.10
1091;DHT22;534;48.704;9.122;2023-02-03T05:15:58;6.30;90.10
1091;DHT22;534;48.704;9.122;2023-02-03T05:18:25;6.20;90.10
1091;DHT22;534;48.704;9.122;2023-02-03T05:20:52;6.30;90.50
1091;DHT22;534;48.704;9.122;2023-02-03T05:23:18;6.30;90.60
1091;DHT22;534;48.704;9.122;2023-02-03T05:25:45;6.40;90.80
1091;DHT22;534;48.704;9.122;2023-02-03T05:28:13;6.40;90.00
1091;DHT22;534;48.704;9.122;2023-02-03T05:30:40;6.50;89.90
1091;DHT22;534;48.704;9.122;2023-02-03T05:33:06;6.60;89.50
1091;DHT22;534;48.704;9.122;2023-02-03T05:35:33;6.70;89.40
1091;DHT22;534;48.704;9.122;2023-02-03T05:38:00;6.60;88.80
1091;DHT22;534;48.704;9.122;2023-02-03T05:40:27;6.50;89.40
1091;DHT22;534;48.704;9.122;2023-02-03T05:43:12;6.50;89.50
1091;DHT22;534;48.704;9.122;2023-02-03T05:45:39;6.40;89.40
1091;DHT22;534;48.704;9.122;2023-02-03T05:48:06;6.50;89.60
1091;DHT22;534;48.704;9.122;2023-02-03T05:50:33;6.40;89.70
1091;DHT22;534;48.704;9.122;2023-02-03T05:53:00;6.40;89.40
1091;DHT22;534;48.704;9.122;2023-02-03T05:55:27;6.50;89.90
1091;DHT22;534;48.704;9.122;2023-02-03T05:57:54;6.60;89.50
1091;DHT22;534;48.704;9.122;2023-02-03T06:00:23;6.50;89.00
1091;DHT22;534;48.704;9.122;2023-02-03T06:02:50;6.30;89.30
1091;DHT22;534;48.704;9.122;2023-02-03T06:05:17;6.40;89.80
1091;DHT22;534;48.704;9.122;2023-02-03T06:07:44;6.30;89.60
1091;DHT22;534;48.704;9.122;2023-02-03T06:10:11;6.40;90.10
1091;DHT22;534;48.704;9.122;2023-02-03T06:12:37;6.60;89.90
1091;DHT22;534;48.704;9.122;2023-02-03T06:15:05;6.70;88.70
1091;DHT22;534;48.704;9.122;2023-02-03T06:17:33;6.60;88.70
1091;DHT22;534;48.704;9.122;2023-02-03T06:20:00;6.60;88.20
1091;DHT22;534;48.704;9.122;2023-02-03T06:22:27;6.40;88.80
1091;DHT22;534;48.704;9.122;2023-02-03T06:24:54;6.30;88.90
1091;DHT22;534;48.704;9.122;2023-02-03T06:27:20;6.20;89.40
1091;DHT22;534;48.704;9.122;2023-02-03T06:29:47;6.30;89.90
1091;DHT22;534;48.704;9.122;2023-02-03T06:32:14;6.20;89.40
1091;DHT22;534;48.704;9.122;2023-02-03T06:34:42;6.00;89.70
1091;DHT22;534;48.704;9.122;2023-02-03T06:37:09;6.10;90.20
1091;DHT22;534;48.704;9.122;2023-02-03T06:39:35;6.10;89.70
1091;DHT22;534;48.704;9.122;2023-02-03T06:42:02;6.20;89.60
1091;DHT22;534;48.704;9.122;2023-02-03T06:44:29;6.20;89.30
1091;DHT22;534;48.704;9.122;2023-02-03T06:46:55;6.10;89.40
1091;DHT22;534;48.704;9.122;2023-02-03T06:49:23;6.10;89.60
1091;DHT22;534;48.704;9.122;2023-02-03T06:51:51;6.20;89.50
1091;DHT22;534;48.704;9.122;2023-02-03T06:54:18;6.20;89.30
1091;DHT22;534;48.704;9.122;2023-02-03T06:56:44;6.00;89.50
1091;DHT22;534;48.704;9.122;2023-02-03T06:59:11;6.00;90.00
1091;DHT22;534;48.704;9.122;2023-02-03T07:01:38;6.00;89.80
1091;DHT22;534;48.704;9.122;2023-02-03T07:04:05;5.90;89.70
1091;DHT22;534;48.704;9.122;2023-02-03T07:06:32;5.70;90.40
1091;DHT22;534;48.704;9.122;2023-02-03T07:09:01;5.70;91.00
1091;DHT22;534;48.704;9.122;2023-02-03T07:11:30;5.70;91.20
1091;DHT22;534;48.704;9.122;2023-02-03T07:13:57;5.80;91.20
1091;DHT22;534;48.704;9.122;2023-02-03T07:16:24;5.80;90.70
1091;DHT22;534;48.704;9.122;2023-02-03T07:18:51;5.60;91.00
1091;DHT22;534;48.704;9.122;2023-02-03T07:21:18;5.60;91.70
1091;DHT22;534;48.704;9.122;2023-02-03T07:23:46;5.70;91.40
1091;DHT22;534;48.704;9.122;2023-02-03T07:26:14;5.80;91.00
1091;DHT22;534;48.704;9.122;2023-02-03T07:28:41;5.70;91.00
1091;DHT22;534;48.704;9.122;2023-02-03T07:31:08;5.60;91.20
1091;DHT22;534;48.704;9.122;2023-02-03T07:33:35;5.50;91.80
1091;DHT22;534;48.704;9.122;2023-02-03T07:36:02;5.40;92.00
1091;DHT22;534;48.704;9.122;2023-02-03T07:38:29;5.50;92.40
1091;DHT22;534;48.704;9.122;2023-02-03T07:40:56;5.70;92.50
1091;DHT22;534;48.704;9.122;2023-02-03T07:43:24;5.60;91.60
1091;DHT22;534;48.704;9.122;2023-02-03T07:45:51;5.80;92.00
1091;DHT22;534;48.704;9.122;2023-02-03T07:48:18;5.70;91.40
1091;DHT22;534;48.704;9.122;2023-02-03T07:50:46;5.60;91.80
1091;DHT22;534;48.704;9.122;2023-02-03T07:53:13;5.70;92.10
1091;DHT22;534;48.704;9.122;2023-02-03T07:55:40;5.80;92.00
1091;DHT22;534;48.704;9.122;2023-02-03T07:58:06;6.00;91.90
1091;DHT22;534;48.704;9.122;2023-02-03T08:00:34;6.10;91.00
1091;DHT22;534;48.704;9.122;2023-02-03T08:03:01;6.00;90.40
1091;DHT22;534;48.704;9.122;2023-02-03T08:05:28;6.00;90.40
1091;DHT22;534;48.704;9.122;2023-02-03T08:07:55;5.90;90.90
1091;DHT22;534;48.704;9.122;2023-02-03T08:10:22;5.80;91.30
1091;DHT22;534;48.704;9.122;2023-02-03T08:12:51;5.80;91.40
1091;DHT22;534;48.704;9.122;2023-02-03T08:15:18;5.80;91.90
1091;DHT22;534;48.704;9.122;2023-02-03T08:17:47;6.00;91.50
1091;DHT22;534;48.704;9.122;2023-02-03T08:20:15;6.00;91.60
1091;DHT22;534;48.704;9.122;2023-02-03T08:22:42;5.90;91.10
1091;DHT22;534;48.704;9.122;2023-02-03T08:25:09;6.00;91.60
1091;DHT22;534;48.704;9.122;2023-02-03T08:27:36;5.90;91.40
1091;DHT22;534;48.704;9.122;2023-02-03T08:30:04;5.80;91.80
1091;DHT22;534;48.704;9.122;2023-02-03T08:32:32;5.80;92.10
1091;DHT22;534;48.704;9.122;2023-02-03T08:35:00;5.90;92.70
1091;DHT22;534;48.704;9.122;2023-02-03T08:37:26;6.00;92.90
1091;DHT22;534;48.704;9.122;2023-02-03T08:39:56;6.20;92.70
1091;DHT22;534;48.704;9.122;2023-02-03T08:42:22;6.20;91.70
1091;DHT22;534;48.704;9.122;2023-02-03T08:44:49;6.10;91.80
1091;DHT22;534;48.704;9.122;2023-02-03T08:47:16;6.10;91.90
1091;DHT22;534;48.704;9.122;2023-02-03T08:49:43;6.30;92.00
1091;DHT22;534;48.704;9.122;2023-02-03T08:52:11;6.50;91.30
1091;DHT22;534;48.704;9.122;2023-02-03T08:54:39;6.60;92.70
1091;DHT22;534;48.704;9.122;2023-02-03T08:57:06;6.70;91.70
1091;DHT22;534;48.704;9.122;2023-02-03T08:59:33;6.80;91.00
1091;DHT22;534;48.704;9.122;2023-02-03T09:02:01;6.60;90.40
1091;DHT22;534;48.704;9.122;2023-02-03T09:04:29;6.60;90.80
1091;DHT22;534;48.704;9.122;2023-02-03T09:06:58;6.60;90.40
1091;DHT22;534;48.704;9.122;2023-02-03T09:09:26;6.60;91.10
1091;DHT22;534;48.704;9.122;2023-02-03T09:11:53;6.70;91.10
1091;DHT22;534;48.704;9.122;2023-02-03T09:14:26;6.80;90.90
1091;DHT22;534;48.704;9.122;2023-02-03T09:16:53;6.80;90.40
1091;DHT22;534;48.704;9.122;2023-02-03T09:19:20;6.80;90.90
1091;DHT22;534;48.704;9.122;2023-02-03T09:21:46;6.90;91.20
1091;DHT22;534;48.704;9.122;2023-02-03T09:24:13;7.00;91.00
1091;DHT22;534;48.704;9.122;2023-02-03T09:26:41;7.10;90.50
1091;DHT22;534;48.704;9.122;2023-02-03T09:29:08;7.10;90.10
1091;DHT22;534;48.704;9.122;2023-02-03T09:31:35;7.00;90.00
1091;DHT22;534;48.704;9.122;2023-02-03T09:34:02;6.80;90.20
1091;DHT22;534;48.704;9.122;2023-02-03T09:36:29;6.70;90.90
1091;DHT22;534;48.704;9.122;2023-02-03T09:38:55;6.50;91.20
1091;DHT22;534;48.704;9.122;2023-02-03T09:41:38;6.50;92.30
1091;DHT22;534;48.704;9.122;2023-02-03T09:44:13;6.40;92.20
1091;DHT22;534;48.704;9.122;2023-02-03T09:46:45;6.30;92.90
1091;DHT22;534;48.704;9.122;2023-02-03T09:49:16;6.40;93.40
1091;DHT22;534;48.704;9.122;2023-02-03T09:51:48;6.50;93.30
1091;DHT22;534;48.704;9.122;2023-02-03T09:54:19;6.60;93.60
1091;DHT22;534;48.704;9.122;2023-02-03T09:56:47;6.80;93.20
1091;DHT22;534;48.704;9.122;2023-02-03T09:59:18;6.90;91.70
1091;DHT22;534;48.704;9.122;2023-02-03T10:01:53;7.10;92.10
1091;DHT22;534;48.704;9.122;2023-02-03T10:04:26;7.10;91.10
1091;DHT22;534;48.704;9.122;2023-02-03T10:07:04;7.40;91.60
1091;DHT22;534;48.704;9.122;2023-02-03T10:09:48;7.30;89.90
1091;DHT22;534;48.704;9.122;2023-02-03T10:12:44;7.40;90.50
1091;DHT22;534;48.704;9.122;2023-02-03T10:15:47;7.60;90.50
1091;DHT22;534;48.704;9.122;2023-02-03T10:18:21;7.80;89.70
1091;DHT22;534;48.704;9.122;2023-02-03T10:20:51;7.80;88.80
1091;DHT22;534;48.704;9.122;2023-02-03T10:23:23;7.80;89.40
1091;DHT22;534;48.704;9.122;2023-02-03T10:25:53;7.80;89.00
1091;DHT22;534;48.704;9.122;2023-02-03T10:28:22;7.90;89.10
1091;DHT22;534;48.704;9.122;2023-02-03T10:30:54;7.90;89.20
1091;DHT22;534;48.704;9.122;2023-02-03T10:33:24;7.90;88.90
1091;DHT22;534;48.704;9.122;2023-02-03T10:35:53;7.80;89.40
1091;DHT22;534;48.704;9.122;2023-02-03T10:38:29;7.60;88.60
1091;DHT22;534;48.704;9.122;2023-02-03T10:40:58;7.70;89.40
1091;DHT22;534;48.704;9.122;2023-02-03T10:43:26;7.60;89.50
1091;DHT22;534;48.704;9.122;2023-02-03T10:46:13;7.70;89.30
1091;DHT22;534;48.704;9.122;2023-02-03T10:48:40;7.80;89.70
1091;DHT22;534;48.704;9.122;2023-02-03T10:51:14;7.70;89.00
1091;DHT22;534;48.704;9.122;2023-02-03T10:53:43;7.80;89.50
1091;DHT22;534;48.704;9.122;2023-02-03T10:56:12;7.80;89.80
1091;DHT22;534;48.704;9.122;2023-02-03T10:58:46;7.80;89.40
1091;DHT22;534;48.704;9.122;2023-02-03T11:01:16;7.90;89.10
1091;DHT22;534;48.704;9.122;2023-02-03T11:03:53;7.90;89.20
1091;DHT22;534;48.704;9.122;2023-02-03T11:06:21;7.90;88.70
1091;DHT22;534;48.704;9.122;2023-02-03T11:08:48;7.90;90.10
1091;DHT22;534;48.704;9.122;2023-02-03T11:11:20;7.90;88.40
1091;DHT22;534;48.704;9.122;2023-02-03T11:13:51;7.90;87.40
1091;DHT22;534;48.704;9.122;2023-02-03T11:16:20;7.90;88.90
1091;DHT22;534;48.704;9.122;2023-02-03T11:18:54;8.10;89.20
1091;DHT22;534;48.704;9.122;2023-02-03T11:21:22;7.90;87.80
1091;DHT22;534;48.704;9.122;2023-02-03T11:23:54;8.10;88.60
1091;DHT22;534;48.704;9.122;2023-02-03T11:26:24;8.10;87.50
1091;DHT22;534;48.704;9.122;2023-02-03T11:28:55;8.10;86.80
1091;DHT22;534;48.704;9.122;2023-02-03T11:31:26;8.00;87.10
1091;DHT22;534;48.704;9.122;2023-02-03T11:33:56;7.80;87.10
1091;DHT22;534;48.704;9.122;2023-02-03T11:36:28;7.90;88.20
1091;DHT22;534;48.704;9.122;2023-02-03T11:39:09;7.80;87.10
1091;DHT22;534;48.704;9.122;2023-02-03T11:41:38;7.90;87.70
1091;DHT22;534;48.704;9.122;2023-02-03T11:44:15;7.90;87.00
1091;DHT22;534;48.704;9.122;2023-02-03T11:46:44;7.90;87.20
1091;DHT22;534;48.704;9.122;2023-02-03T11:49:31;8.00;87.50
1091;DHT22;534;48.704;9.122;2023-02-03T11:52:05;8.00;87.20
1091;DHT22;534;48.704;9.122;2023-02-03T11:54:38;8.00;87.50
1091;DHT22;534;48.704;9.122;2023-02-03T11:57:22;8.00;87.00
1091;DHT22;534;48.704;9.122;2023-02-03T12:00:02;8.00;87.50
1091;DHT22;534;48.704;9.122;2023-02-03T12:02:58;8.00;86.70
1091;DHT22;534;48.704;9.122;2023-02-03T12:05:41;8.10;87.00
1091;DHT22;534;48.704;9.122;2023-02-03T12:11:09;8.10;85.70
1091;DHT22;534;48.704;9.122;2023-02-03T12:13:56;7.90;85.40
1091;DHT22;534;48.704;9.122;2023-02-03T12:16:49;7.80;85.80
1091;DHT22;534;48.704;9.122;2023-02-03T12:19:26;7.90;87.60
1091;DHT22;534;48.704;9.122;2023-02-03T12:22:01;7.90;86.80
1091;DHT22;534;48.704;9.122;2023-02-03T12:24:37;8.00;86.00
1091;DHT22;534;48.704;9.122;2023-02-03T12:27:17;8.10;86.60
1091;DHT22;534;48.704;9.122;2023-02-03T12:29:48;8.20;86.00
1091;DHT22;534;48.704;9.122;2023-02-03T12:32:22;8.20;84.20
1091;DHT22;534;48.704;9.122;2023-02-03T12:34:55;8.20;85.10
1091;DHT22;534;48.704;9.122;2023-02-03T12:37:29;8.20;84.40
1091;DHT22;534;48.704;9.122;2023-02-03T12:40:02;8.20;83.80
1091;DHT22;534;48.704;9.122;2023-02-03T12:42:33;8.20;84.50
1091;DHT22;534;48.704;9.122;2023-02-03T12:45:08;8.20;84.70
1091;DHT22;534;48.704;9.122;2023-02-03T12:47:39;8.10;84.10
1091;DHT22;534;48.704;9.122;2023-02-03T12:50:15;8.10;83.30
1091;DHT22;534;48.704;9.122;2023-02-03T12:52:46;8.10;84.00
1091;DHT22;534;48.704;9.122;2023-02-03T12:55:19;8.20;84.00
1091;DHT22;534;48.704;9.122;2023-02-03T12:57:51;8.00;83.00
1091;DHT22;534;48.704;9.122;2023-02-03T13:00:32;7.90;83.30
1091;DHT22;534;48.704;9.122;2023-02-03T13:03:07;7.90;84.10
1091;DHT22;534;48.704;9.122;2023-02-03T13:05:42;7.90;84.30
1091;DHT22;534;48.704;9.122;2023-02-03T13:08:15;8.00;85.00
1091;DHT22;534;48.704;9.122;2023-02-03T13:10:47;7.90;83.30
1091;DHT22;534;48.704;9.122;2023-02-03T13:13:22;7.90;84.10
1091;DHT22;534;48.704;9.122;2023-02-03T13:15:52;7.90;83.70
1091;DHT22;534;48.704;9.122;2023-02-03T13:18:24;7.90;83.60
1091;DHT22;534;48.704;9.122;2023-02-03T13:20:54;8.00;83.90
1091;DHT22;534;48.704;9.122;2023-02-03T13:23:21;7.90;83.30
1091;DHT22;534;48.704;9.122;2023-02-03T13:26:13;7.90;83.40
1091;DHT22;534;48.704;9.122;2023-02-03T13:28:52;8.00;83.30
1091;DHT22;534;48.704;9.122;2023-02-03T13:31:31;8.00;83.00
1091;DHT22;534;48.704;9.122;2023-02-03T13:34:24;8.00;83.10
1091;DHT22;534;48.704;9.122;2023-02-03T13:37:20;8.00;83.00
1091;DHT22;534;48.704;9.122;2023-02-03T13:39:58;8.00;83.00
1091;DHT22;534;48.704;9.122;2023-02-03T13:42:30;8.10;82.20
1091;DHT22;534;48.704;9.122;2023-02-03T13:45:02;7.90;82.00
1091;DHT22;534;48.704;9.122;2023-02-03T13:47:30;7.90;82.70
1091;DHT22;534;48.704;9.122;2023-02-03T13:50:00;7.90;82.90
1091;DHT22;534;48.704;9.122;2023-02-03T13:52:33;7.90;82.80
1091;DHT22;534;48.704;9.122;2023-02-03T13:55:01;8.00;83.30
1091;DHT22;534;48.704;9.122;2023-02-03T13:57:32;8.00;81.80
1091;DHT22;534;48.704;9.122;2023-02-03T14:00:00;7.90;82.40
1091;DHT22;534;48.704;9.122;2023-02-03T14:02:52;8.00;82.40
1091;DHT22;534;48.704;9.122;2023-02-03T14:05:39;8.10;81.90
1091;DHT22;534;48.704;9.122;2023-02-03T14:11:39;8.10;82.50
1091;DHT22;534;48.704;9.122;2023-02-03T14:14:41;8.00;83.00
1091;DHT22;534;48.704;9.122;2023-02-03T14:23:08;8.00;82.20
1091;DHT22;534;48.704;9.122;2023-02-03T14:25:40;8.00;82.10
1091;DHT22;534;48.704;9.122;2023-02-03T14:28:10;7.90;82.70
1091;DHT22;534;48.704;9.122;2023-02-03T14:31:02;8.00;83.10
1091;DHT22;534;48.704;9.122;2023-02-03T14:33:50;8.00;83.10
1091;DHT22;534;48.704;9.122;2023-02-03T14:36:34;8.00;83.20
1091;DHT22;534;48.704;9.122;2023-02-03T14:39:03;8.00;83.60
1091;DHT22;534;48.704;9.122;2023-02-03T14:41:51;8.10;83.10
1091;DHT22;534;48.704;9.122;2023-02-03T14:44:29;8.00;83.20
1091;DHT22;534;48.704;9.122;2023-02-03T14:47:08;8.00;83.30
1091;DHT22;534;48.704;9.122;2023-02-03T14:49:50;8.00;83.60
1091;DHT22;534;48.704;9.122;2023-02-03T14:52:36;7.90;83.20
1091;DHT22;534;48.704;9.122;2023-02-03T14:55:21;7.80;84.10
1091;DHT22;534;48.704;9.122;2023-02-03T14:57:52;7.80;84.10
1091;DHT22;534;48.704;9.122;2023-02-03T15:00:39;7.80;84.60
1091;DHT22;534;48.704;9.122;2023-02-03T15:03:16;7.60;84.90
1091;DHT22;534;48.704;9.122;2023-02-03T15:05:48;7.60;85.40
1091;DHT22;534;48.704;9.122;2023-02-03T15:08:38;7.60;85.70
1091;DHT22;534;48.704;9.122;2023-02-03T15:11:28;7.70;85.60
1091;DHT22;534;48.704;9.122;2023-02-03T15:13:56;7.50;86.40
1091;DHT22;534;48.704;9.122;2023-02-03T15:16:42;7.40;86.70
1091;DHT22;534;48.704;9.122;2023-02-03T15:19:15;7.30;87.10
1091;DHT22;534;48.704;9.122;2023-02-03T15:21:42;7.30;87.70
1091;DHT22;534;48.704;9.122;2023-02-03T15:24:13;7.20;88.10
1091;DHT22;534;48.704;9.122;2023-02-03T15:26:44;7.20;88.20
1091;DHT22;534;48.704;9.122;2023-02-03T15:29:19;7.10;88.20
1091;DHT22;534;48.704;9.122;2023-02-03T15:31:51;7.00;88.80
1091;DHT22;534;48.704;9.122;2023-02-03T15:34:25;7.00;89.00
1091;DHT22;534;48.704;9.122;2023-02-03T15:36:54;7.00;89.10
1091;DHT22;534;48.704;9.122;2023-02-03T15:39:33;7.00;89.20
1091;DHT22;534;48.704;9.122;2023-02-03T15:42:03;7.10;89.10
1091;DHT22;534;48.704;9.122;2023-02-03T15:44:33;7.00;89.00
1091;DHT22;534;48.704;9.122;2023-02-03T15:47:04;7.10;89.50
1091;DHT22;534;48.704;9.122;2023-02-03T15:49:42;7.10;89.10
1091;DHT22;534;48.704;9.122;2023-02-03T15:52:13;7.00;89.90
1091;DHT22;534;48.704;9.122;2023-02-03T15:54:43;7.00;89.90
1091;DHT22;534;48.704;9.122;2023-02-03T15:57:21;7.00;89.50
1091;DHT22;534;48.704;9.122;2023-02-03T15:59:53;7.10;89.90
1091;DHT22;534;48.704;9.122;2023-02-03T16:02:26;7.10;89.70
1091;DHT22;534;48.704;9.122;2023-02-03T16:04:54;7.10;89.80
1091;DHT22;534;48.704;9.122;2023-02-03T16:07:23;7.00;89.30
1091;DHT22;534;48.704;9.122;2023-02-03T16:09:51;7.10;89.70
1091;DHT22;534;48.704;9.122;2023-02-03T16:12:22;7.20;89.20
1091;DHT22;534;48.704;9.122;2023-02-03T16:14:49;7.20;89.20
1091;DHT22;534;48.704;9.122;2023-02-03T16:17:27;7.20;88.80
1091;DHT22;534;48.704;9.122;2023-02-03T16:20:19;7.40;89.10
1091;DHT22;534;48.704;9.122;2023-02-03T16:23:00;7.50;88.20
1091;DHT22;534;48.704;9.122;2023-02-03T16:25:29;7.40;88.30
1091;DHT22;534;48.704;9.122;2023-02-03T16:27:57;7.40;88.60
1091;DHT22;534;48.704;9.122;2023-02-03T16:30:52;7.30;88.80
1091;DHT22;534;48.704;9.122;2023-02-03T16:33:38;7.20;89.20
1091;DHT22;534;48.704;9.122;2023-02-03T16:36:22;7.30;89.10
1091;DHT22;534;48.704;9.122;2023-02-03T16:39:10;7.40;89.20
1091;DHT22;534;48.704;9.122;2023-02-03T16:41:56;7.50;88.90
1091;DHT22;534;48.704;9.122;2023-02-03T16:44:40;7.50;88.60
1091;DHT22;534;48.704;9.122;2023-02-03T16:47:26;7.40;88.90
1091;DHT22;534;48.704;9.122;2023-02-03T16:50:18;7.40;89.30
1091;DHT22;534;48.704;9.122;2023-02-03T16:53:03;7.50;89.50
1091;DHT22;534;48.704;9.122;2023-02-03T16:55:30;7.50;89.10
1091;DHT22;534;48.704;9.122;2023-02-03T16:57:56;7.50;89.30
1091;DHT22;534;48.704;9.122;2023-02-03T17:00:23;7.60;89.20
1091;DHT22;534;48.704;9.122;2023-02-03T17:02:50;7.60;88.90
1091;DHT22;534;48.704;9.122;2023-02-03T17:05:19;7.60;89.20
1091;DHT22;534;48.704;9.122;2023-02-03T17:07:46;7.50;89.20
1091;DHT22;534;48.704;9.122;2023-02-03T17:10:14;7.60;89.50
1091;DHT22;534;48.704;9.122;2023-02-03T17:12:40;7.50;89.10
1091;DHT22;534;48.704;9.122;2023-02-03T17:15:08;7.50;89.50
1091;DHT22;534;48.704;9.122;2023-02-03T17:17:34;7.50;89.80
1091;DHT22;534;48.704;9.122;2023-02-03T17:20:01;7.50;89.50
1091;DHT22;534;48.704;9.122;2023-02-03T17:22:29;7.60;89.70
1091;DHT22;534;48.704;9.122;2023-02-03T17:24:56;7.60;89.60
1091;DHT22;534;48.704;9.122;2023-02-03T17:27:23;7.50;89.70
1091;DHT22;534;48.704;9.122;2023-02-03T17:29:50;7.60;90.10
1091;DHT22;534;48.704;9.122;2023-02-03T17:32:16;7.50;89.70
1091;DHT22;534;48.704;9.122;2023-02-03T17:34:43;7.60;90.10
1091;DHT22;534;48.704;9.122;2023-02-03T17:37:09;7.70;89.50
1091;DHT22;534;48.704;9.122;2023-02-03T17:39:37;7.70;89.60
1091;DHT22;534;48.704;9.122;2023-02-03T17:42:04;7.70;89.10
1091;DHT22;534;48.704;9.122;2023-02-03T17:44:32;7.70;89.50
1091;DHT22;534;48.704;9.122;2023-02-03T17:47:00;7.80;89.40
1091;DHT22;534;48.704;9.122;2023-02-03T17:49:26;7.80;88.90
1091;DHT22;534;48.704;9.122;2023-02-03T17:51:53;7.80;89.00
1091;DHT22;534;48.704;9.122;2023-02-03T17:54:20;7.80;89.10
1091;DHT22;534;48.704;9.122;2023-02-03T17:56:48;7.80;89.10
1091;DHT22;534;48.704;9.122;2023-02-03T17:59:15;7.80;89.10
1091;DHT22;534;48.704;9.122;2023-02-03T18:01:42;7.90;88.80
1091;DHT22;534;48.704;9.122;2023-02-03T18:04:11;7.90;88.90
1091;DHT22;534;48.704;9.122;2023-02-03T18:06:37;7.90;88.90
1091;DHT22;534;48.704;9.122;2023-02-03T18:09:06;7.90;88.70
1091;DHT22;534;48.704;9.122;2023-02-03T18:11:34;7.70;89.20
1091;DHT22;534;48.704;9.122;2023-02-03T18:14:03;7.60;89.70
1091;DHT22;534;48.704;9.122;2023-02-03T18:16:32;7.60;89.90
1091;DHT22;534;48.704;9.122;2023-02-03T18:19:01;7.60;90.20
1091;DHT22;534;48.704;9.122;2023-02-03T18:21:28;7.60;90.10
1091;DHT22;534;48.704;9.122;2023-02-03T18:23:56;7.60;90.10
1091;DHT22;534;48.704;9.122;2023-02-03T18:26:27;7.70;89.90
1091;DHT22;534;48.704;9.122;2023-02-03T18:28:54;7.80;89.70
1091;DHT22;534;48.704;9.122;2023-02-03T18:31:22;7.80;89.60
1091;DHT22;534;48.704;9.122;2023-02-03T18:33:49;7.80;89.40
1091;DHT22;534;48.704;9.122;2023-02-03T18:36:16;7.80;89.70
1091;DHT22;534;48.704;9.122;2023-02-03T18:38:44;7.90;89.50
1091;DHT22;534;48.704;9.122;2023-02-03T18:41:14;7.90;89.10
1091;DHT22;534;48.704;9.122;2023-02-03T18:43:41;7.90;89.10
1091;DHT22;534;48.704;9.122;2023-02-03T18:46:08;7.90;89.40
1091;DHT22;534;48.704;9.122;2023-02-03T18:48:37;7.90;89.40
1091;DHT22;534;48.704;9.122;2023-02-03T18:51:07;7.90;89.20
1091;DHT22;534;48.704;9.122;2023-02-03T18:53:34;7.80;89.80
1091;DHT22;534;48.704;9.122;2023-02-03T18:56:04;7.80;90.00
1091;DHT22;534;48.704;9.122;2023-02-03T18:58:31;7.80;90.40
1091;DHT22;534;48.704;9.122;2023-02-03T19:00:58;7.70;90.40
1091;DHT22;534;48.704;9.122;2023-02-03T19:03:25;7.80;90.50
1091;DHT22;534;48.704;9.122;2023-02-03T19:05:53;7.90;90.30
1091;DHT22;534;48.704;9.122;2023-02-03T19:08:20;7.90;90.10
1091;DHT22;534;48.704;9.122;2023-02-03T19:10:49;7.80;90.50
1091;DHT22;534;48.704;9.122;2023-02-03T19:13:16;7.80;90.60
1091;DHT22;534;48.704;9.122;2023-02-03T19:15:44;7.80;91.00
1091;DHT22;534;48.704;9.122;2023-02-03T19:18:12;7.70;91.10
1091;DHT22;534;48.704;9.122;2023-02-03T19:20:38;7.80;91.50
1091;DHT22;534;48.704;9.122;2023-02-03T19:23:09;7.90;90.80
1091;DHT22;534;48.704;9.122;2023-02-03T19:25:36;7.90;90.90
1091;DHT22;534;48.704;9.122;2023-02-03T19:28:03;7.80;90.90
1091;DHT22;534;48.704;9.122;2023-02-03T19:30:31;7.70;91.50
1091;DHT22;534;48.704;9.122;2023-02-03T19:32:58;7.60;91.50
1091;DHT22;534;48.704;9.122;2023-02-03T19:35:25;7.70;91.80
1091;DHT22;534;48.704;9.122;2023-02-03T19:37:51;7.60;91.70
1091;DHT22;534;48.704;9.122;2023-02-03T19:40:19;7.60;92.20
1091;DHT22;534;48.704;9.122;2023-02-03T19:42:46;7.60;92.30
1091;DHT22;534;48.704;9.122;2023-02-03T19:45:13;7.60;92.30
1091;DHT22;534;48.704;9.122;2023-02-03T19:47:40;7.60;92.30
1091;DHT22;534;48.704;9.122;2023-02-03T19:50:07;7.70;92.50
1091;DHT22;534;48.704;9.122;2023-02-03T19:52:34;7.80;92.30
1091;DHT22;534;48.704;9.122;2023-02-03T19:55:00;7.80;91.80
1091;DHT22;534;48.704;9.122;2023-02-03T19:57:28;7.70;92.00
1091;DHT22;534;48.704;9.122;2023-02-03T19:59:55;7.70;92.10
1091;DHT22;534;48.704;9.122;2023-02-03T20:02:22;7.80;92.20
1091;DHT22;534;48.704;9.122;2023-02-03T20:04:50;7.80;92.00
1091;DHT22;534;48.704;9.122;2023-02-03T20:07:17;7.90;92.10
1091;DHT22;534;48.704;9.122;2023-02-03T20:09:44;7.90;91.70
1091;DHT22;534;48.704;9.122;2023-02-03T20:12:12;8.00;91.70
1091;DHT22;534;48.704;9.122;2023-02-03T20:14:40;8.10;91.70
1091;DHT22;534;48.704;9.122;2023-02-03T20:17:06;8.00;91.30
1091;DHT22;534;48.704;9.122;2023-02-03T20:19:33;8.10;91.50
1091;DHT22;534;48.704;9.122;2023-02-03T20:22:00;8.10;91.40
1091;DHT22;534;48.704;9.122;2023-02-03T20:24:26;8.10;91.20
1091;DHT22;534;48.704;9.122;2023-02-03T20:26:53;7.90;91.70
1091;DHT22;534;48.704;9.122;2023-02-03T20:29:20;7.90;91.90
1091;DHT22;534;48.704;9.122;2023-02-03T20:31:48;7.90;91.90
1091;DHT22;534;48.704;9.122;2023-02-03T20:34:14;7.90;92.00
1091;DHT22;534;48.704;9.122;2023-02-03T20:36:41;7.90;92.10
1091;DHT22;534;48.704;9.122;2023-02-03T20:39:15;7.90;91.90
1091;DHT22;534;48.704;9.122;2023-02-03T20:41:43;7.90;91.90
1091;DHT22;534;48.704;9.122;2023-02-03T20:44:11;7.90;92.00
1091;DHT22;534;48.704;9.122;2023-02-03T20:46:38;7.80;91.80
1091;DHT22;534;48.704;9.122;2023-02-03T20:49:09;7.80;91.80
1091;DHT22;534;48.704;9.122;2023-02-03T20:51:37;7.80;92.10
1091;DHT22;534;48.704;9.122;2023-02-03T20:54:07;7.90;91.70
1091;DHT22;534;48.704;9.122;2023-02-03T20:56:38;7.80;91.20
1091;DHT22;534;48.704;9.122;2023-02-03T20:59:07;7.90;91.10
1091;DHT22;534;48.704;9.122;2023-02-03T21:01:34;7.90;91.30
1091;DHT22;534;48.704;9.122;2023-02-03T21:04:00;7.90;91.00
1091;DHT22;534;48.704;9.122;2023-02-03T21:06:46;8.00;90.70
1091;DHT22;534;48.704;9.122;2023-02-03T21:09:14;8.10;90.40
1091;DHT22;534;48.704;9.122;2023-02-03T21:11:42;8.00;89.70